sensor_id;sensor_type;location;lat;lon;timestamp;temperature;humidity
19152;DHT22;9708;53.114;9.388;2023-04-12T00:00:53;4.90;99.90
19152;DHT22;9708;53.114;9.388;2023-04-12T00:03:21;4.90;99.90
19152;DHT22;9708;53.114;9.388;2023-04-12T00:05:49;4.90;99.90
19152;DHT22;9708;53.114;9.388;2023-04-12T00:08:19;5.00;99.90
19152;DHT22;9708;53.114;9.388;2023-04-12T00:10:49;4.90;99.90
19152;DHT22;9708;53.114;9.388;2023-04-12T00:13:16;4.90;99.90
19152;DHT22;9708;53.114;9.388;2023-04-12T00:15:44;5.10;99.90
19152;DHT22;9708;53.114;9.388;2023-04-12T00:18:11;5.00;99.90
19152;DHT22;9708;53.114;9.388;2023-04-12T00:20:39;4.80;99.90
19152;DHT22;9708;53.114;9.388;2023-04-12T00:23:06;5.00;99.90
19152;DHT22;9708;53.114;9.388;2023-04-12T00:25:34;4.90;99.90
19152;DHT22;9708;53.114;9.388;2023-04-12T00:28:01;4.90;99.90
19152;DHT22;9708;53.114;9.388;2023-04-12T00:30:28;4.80;99.90
19152;DHT22;9708;53.114;9.388;2023-04-12T00:32:54;4.80;99.90
19152;DHT22;9708;53.114;9.388;2023-04-12T00:35:21;4.90;99.90
19152;DHT22;9708;53.114;9.388;2023-04-12T00:37:50;4.80;99.90
19152;DHT22;9708;53.114;9.388;2023-04-12T00:40:16;4.90;99.90
19152;DHT22;9708;53.114;9.388;2023-04-12T00:42:43;5.00;99.90
19152;DHT22;9708;53.114;9.388;2023-04-12T00:45:10;5.10;99.90
19152;DHT22;9708;53.114;9.388;2023-04-12T00:47:38;5.00;99.90
19152;DHT22;9708;53.114;9.388;2023-04-12T00:50:08;5.10;99.90
19152;DHT22;9708;53.114;9.388;2023-04-12T00:52:35;5.10;99.90
19152;DHT22;9708;53.114;9.388;2023-04-12T00:55:06;5.10;99.90
19152;DHT22;9708;53.114;9.388;2023-04-12T00:57:35;5.20;99.90
19152;DHT22;9708;53.114;9.388;2023-04-12T01:00:03;5.10;99.90
19152;DHT22;9708;53.114;9.388;2023-04-12T01:02:30;5.30;99.90
19152;DHT22;9708;53.114;9.388;2023-04-12T01:04:58;5.30;99.90
19152;DHT22;9708;53.114;9.388;2023-04-12T01:07:33;5.20;99.90
19152;DHT22;9708;53.114;9.388;2023-04-12T01:10:08;5.20;99.90
19152;DHT22;9708;53.114;9.388;2023-04-12T01:12:46;5.20;99.90
19152;DHT22;9708;53.114;9.388;2023-04-12T01:15:16;5.20;99.90
19152;DHT22;9708;53.114;9.388;2023-04-12T01:17:46;5.20;99.90
19152;DHT22;9708;53.114;9.388;2023-04-12T01:20:18;5.10;99.90
19152;DHT22;9708;53.114;9.388;2023-04-12T01:23:05;5.10;99.90
19152;DHT22;9708;53.114;9.388;2023-04-12T01:25:55;5.10;99.90
19152;DHT22;9708;53.114;9.388;2023-04-12T01:28:31;5.20;99.90
19152;DHT22;9708;53.114;9.388;2023-04-12T01:31:00;5.20;99.90
19152;DHT22;9708;53.114;9.388;2023-04-12T01:33:28;5.30;99.90
19152;DHT22;9708;53.114;9.388;2023-04-12T01:35:57;5.30;99.90
19152;DHT22;9708;53.114;9.388;2023-04-12T01:38:25;5.30;99.90
19152;DHT22;9708;53.114;9.388;2023-04-12T01:40:53;5.30;99.90
19152;DHT22;9708;53.114;9.388;2023-04-12T01:43:20;5.30;99.90
19152;DHT22;9708;53.114;9.388;2023-04-12T01:45:48;5.40;99.90
19152;DHT22;9708;53.114;9.388;2023-04-12T01:48:15;5.50;99.90
19152;DHT22;9708;53.114;9.388;2023-04-12T01:50:59;5.40;99.90
19152;DHT22;9708;53.114;9.388;2023-04-12T01:53:34;5.40;99.90
19152;DHT22;9708;53.114;9.388;2023-04-12T01:56:07;5.40;99.90
19152;DHT22;9708;53.114;9.388;2023-04-12T01:58:36;5.40;99.90
19152;DHT22;9708;53.114;9.388;2023-04-12T02:01:05;5.50;99.90
19152;DHT22;9708;53.114;9.388;2023-04-12T02:03:32;5.60;99.90
19152;DHT22;9708;53.114;9.388;2023-04-12T02:06:00;5.50;99.90
19152;DHT22;9708;53.114;9.388;2023-04-12T02:08:28;5.60;99.90
19152;DHT22;9708;53.114;9.388;2023-04-12T02:10:55;5.50;99.90
19152;DHT22;9708;53.114;9.388;2023-04-12T02:13:22;5.50;99.90
19152;DHT22;9708;53.114;9.388;2023-04-12T02:15:49;5.60;99.90
19152;DHT22;9708;53.114;9.388;2023-04-12T02:18:20;5.60;99.90
19152;DHT22;9708;53.114;9.388;2023-04-12T02:20:48;5.60;99.90
19152;DHT22;9708;53.114;9.388;2023-04-12T02:23:15;5.60;99.90
19152;DHT22;9708;53.114;9.388;2023-04-12T02:25:42;5.60;99.90
19152;DHT22;9708;53.114;9.388;2023-04-12T02:28:10;5.60;99.90
19152;DHT22;9708;53.114;9.388;2023-04-12T02:30:37;5.60;99.90
19152;DHT22;9708;53.114;9.388;2023-04-12T02:33:06;5.70;99.90
19152;DHT22;9708;53.114;9.388;2023-04-12T02:35:35;5.70;99.90
19152;DHT22;9708;53.114;9.388;2023-04-12T02:38:02;5.60;99.90
19152;DHT22;9708;53.114;9.388;2023-04-12T02:40:32;5.60;99.90
19152;DHT22;9708;53.114;9.388;2023-04-12T02:42:59;5.70;99.90
19152;DHT22;9708;53.114;9.388;2023-04-12T02:45:26;5.90;99.90
19152;DHT22;9708;53.114;9.388;2023-04-12T02:47:53;5.80;99.90
19152;DHT22;9708;53.114;9.388;2023-04-12T02:50:20;5.80;99.90
19152;DHT22;9708;53.114;9.388;2023-04-12T02:52:48;5.80;99.90
19152;DHT22;9708;53.114;9.388;2023-04-12T02:55:15;5.80;99.90
19152;DHT22;9708;53.114;9.388;2023-04-12T02:57:43;5.80;99.90
19152;DHT22;9708;53.114;9.388;2023-04-12T03:00:11;5.80;99.90
19152;DHT22;9708;53.114;9.388;2023-04-12T03:02:38;5.90;99.90
19152;DHT22;9708;53.114;9.388;2023-04-12T03:05:06;5.80;99.90
19152;DHT22;9708;53.114;9.388;2023-04-12T03:07:33;6.00;99.90
19152;DHT22;9708;53.114;9.388;2023-04-12T03:10:02;5.90;99.90
19152;DHT22;9708;53.114;9.388;2023-04-12T03:12:30;5.80;99.90
19152;DHT22;9708;53.114;9.388;2023-04-12T03:14:57;5.90;99.90
19152;DHT22;9708;53.114;9.388;2023-04-12T03:17:24;5.90;99.90
19152;DHT22;9708;53.114;9.388;2023-04-12T03:19:50;6.00;99.90
19152;DHT22;9708;53.114;9.388;2023-04-12T03:22:17;5.90;99.90
19152;DHT22;9708;53.114;9.388;2023-04-12T03:24:44;6.00;99.90
19152;DHT22;9708;53.114;9.388;2023-04-12T03:27:12;6.00;99.90
19152;DHT22;9708;53.114;9.388;2023-04-12T03:29:39;6.00;99.90
19152;DHT22;9708;53.114;9.388;2023-04-12T03:32:06;6.10;99.90
19152;DHT22;9708;53.114;9.388;2023-04-12T03:34:33;6.00;99.90
19152;DHT22;9708;53.114;9.388;2023-04-12T03:37:01;6.00;99.90
19152;DHT22;9708;53.114;9.388;2023-04-12T03:39:28;6.00;99.90
19152;DHT22;9708;53.114;9.388;2023-04-12T03:41:54;6.10;99.90
19152;DHT22;9708;53.114;9.388;2023-04-12T03:44:23;6.10;99.90
19152;DHT22;9708;53.114;9.388;2023-04-12T03:46:50;6.10;99.90
19152;DHT22;9708;53.114;9.388;2023-04-12T03:49:18;6.20;99.90
19152;DHT22;9708;53.114;9.388;2023-04-12T03:51:45;6.10;99.90
19152;DHT22;9708;53.114;9.388;2023-04-12T03:54:15;5.90;99.90
19152;DHT22;9708;53.114;9.388;2023-04-12T03:56:42;6.00;99.90
19152;DHT22;9708;53.114;9.388;2023-04-12T03:59:09;5.90;99.90
19152;DHT22;9708;53.114;9.388;2023-04-12T04:01:37;6.00;99.90
19152;DHT22;9708;53.114;9.388;2023-04-12T04:04:04;6.00;99.90
19152;DHT22;9708;53.114;9.388;2023-04-12T04:06:32;6.00;99.90
19152;DHT22;9708;53.114;9.388;2023-04-12T04:08:59;5.90;99.90
19152;DHT22;9708;53.114;9.388;2023-04-12T04:11:26;5.90;99.90
19152;DHT22;9708;53.114;9.388;2023-04-12T04:13:53;6.00;99.90
19152;DHT22;9708;53.114;9.388;2023-04-12T04:16:20;6.10;99.90
19152;DHT22;9708;53.114;9.388;2023-04-12T04:18:48;6.00;99.90
19152;DHT22;9708;53.114;9.388;2023-04-12T04:21:15;6.10;99.90
19152;DHT22;9708;53.114;9.388;2023-04-12T04:23:42;5.90;99.90
19152;DHT22;9708;53.114;9.388;2023-04-12T04:26:12;6.10;99.90
19152;DHT22;9708;53.114;9.388;2023-04-12T04:28:41;6.00;99.90
19152;DHT22;9708;53.114;9.388;2023-04-12T04:31:10;6.00;99.90
19152;DHT22;9708;53.114;9.388;2023-04-12T04:33:38;6.10;99.90
19152;DHT22;9708;53.114;9.388;2023-04-12T04:36:08;6.00;99.90
19152;DHT22;9708;53.114;9.388;2023-04-12T04:38:35;6.10;99.90
19152;DHT22;9708;53.114;9.388;2023-04-12T04:41:05;6.00;99.90
19152;DHT22;9708;53.114;9.388;2023-04-12T04:43:33;6.00;99.90
19152;DHT22;9708;53.114;9.388;2023-04-12T04:46:04;6.00;99.90
19152;DHT22;9708;53.114;9.388;2023-04-12T04:48:31;6.00;99.90
19152;DHT22;9708;53.114;9.388;2023-04-12T04:50:59;6.10;99.90
19152;DHT22;9708;53.114;9.388;2023-04-12T04:53:27;6.10;99.90
19152;DHT22;9708;53.114;9.388;2023-04-12T04:55:57;6.10;99.90
19152;DHT22;9708;53.114;9.388;2023-04-12T04:58:24;6.10;99.90
19152;DHT22;9708;53.114;9.388;2023-04-12T05:00:53;6.10;99.90
19152;DHT22;9708;53.114;9.388;2023-04-12T05:03:21;6.30;99.90
19152;DHT22;9708;53.114;9.388;2023-04-12T05:05:52;6.30;99.90
19152;DHT22;9708;53.114;9.388;2023-04-12T05:08:19;6.20;99.90
19152;DHT22;9708;53.114;9.388;2023-04-12T05:10:50;6.10;99.90
19152;DHT22;9708;53.114;9.388;2023-04-12T05:13:17;6.30;99.90
19152;DHT22;9708;53.114;9.388;2023-04-12T05:15:45;6.40;99.90
19152;DHT22;9708;53.114;9.388;2023-04-12T05:18:12;6.50;99.90
19152;DHT22;9708;53.114;9.388;2023-04-12T05:20:39;6.50;99.90
19152;DHT22;9708;53.114;9.388;2023-04-12T05:23:07;6.40;99.90
19152;DHT22;9708;53.114;9.388;2023-04-12T05:25:33;6.50;99.90
19152;DHT22;9708;53.114;9.388;2023-04-12T05:28:02;6.50;99.90
19152;DHT22;9708;53.114;9.388;2023-04-12T05:30:29;6.70;99.90
19152;DHT22;9708;53.114;9.388;2023-04-12T05:32:56;6.60;99.90
19152;DHT22;9708;53.114;9.388;2023-04-12T05:35:22;6.70;99.90
19152;DHT22;9708;53.114;9.388;2023-04-12T05:37:49;6.60;99.90
19152;DHT22;9708;53.114;9.388;2023-04-12T05:40:16;6.70;99.90
19152;DHT22;9708;53.114;9.388;2023-04-12T05:42:43;6.70;99.90
19152;DHT22;9708;53.114;9.388;2023-04-12T05:45:11;6.70;99.90
19152;DHT22;9708;53.114;9.388;2023-04-12T05:47:38;6.90;99.90
19152;DHT22;9708;53.114;9.388;2023-04-12T05:50:06;7.00;99.90
19152;DHT22;9708;53.114;9.388;2023-04-12T05:52:33;7.10;99.90
19152;DHT22;9708;53.114;9.388;2023-04-12T05:55:00;7.30;99.90
19152;DHT22;9708;53.114;9.388;2023-04-12T05:57:26;7.40;99.90
19152;DHT22;9708;53.114;9.388;2023-04-12T05:59:53;7.60;99.90
19152;DHT22;9708;53.114;9.388;2023-04-12T06:02:21;7.70;99.90
19152;DHT22;9708;53.114;9.388;2023-04-12T06:04:50;7.90;99.90
19152;DHT22;9708;53.114;9.388;2023-04-12T06:07:18;7.60;99.90
19152;DHT22;9708;53.114;9.388;2023-04-12T06:09:45;7.60;99.90
19152;DHT22;9708;53.114;9.388;2023-04-12T06:12:12;7.50;99.90
19152;DHT22;9708;53.114;9.388;2023-04-12T06:14:39;7.60;99.90
19152;DHT22;9708;53.114;9.388;2023-04-12T06:17:06;7.50;99.90
19152;DHT22;9708;53.114;9.388;2023-04-12T06:19:34;7.40;99.90
19152;DHT22;9708;53.114;9.388;2023-04-12T06:22:01;7.60;99.90
19152;DHT22;9708;53.114;9.388;2023-04-12T06:24:27;7.60;99.90
19152;DHT22;9708;53.114;9.388;2023-04-12T06:26:54;7.70;99.90
19152;DHT22;9708;53.114;9.388;2023-04-12T06:29:21;7.60;99.90
19152;DHT22;9708;53.114;9.388;2023-04-12T06:31:47;7.70;99.90
19152;DHT22;9708;53.114;9.388;2023-04-12T06:34:14;7.80;99.90
19152;DHT22;9708;53.114;9.388;2023-04-12T06:36:43;7.70;99.90
19152;DHT22;9708;53.114;9.388;2023-04-12T06:39:12;7.70;99.90
19152;DHT22;9708;53.114;9.388;2023-04-12T06:41:40;7.60;99.90
19152;DHT22;9708;53.114;9.388;2023-04-12T06:44:08;7.50;99.90
19152;DHT22;9708;53.114;9.388;2023-04-12T06:46:35;7.50;99.90
19152;DHT22;9708;53.114;9.388;2023-04-12T06:49:02;7.60;99.90
19152;DHT22;9708;53.114;9.388;2023-04-12T06:51:28;7.60;99.90
19152;DHT22;9708;53.114;9.388;2023-04-12T06:53:58;7.60;99.90
19152;DHT22;9708;53.114;9.388;2023-04-12T06:56:25;7.50;99.90
19152;DHT22;9708;53.114;9.388;2023-04-12T06:58:51;7.60;99.90
19152;DHT22;9708;53.114;9.388;2023-04-12T07:01:18;7.70;99.90
19152;DHT22;9708;53.114;9.388;2023-04-12T07:03:45;7.70;99.90
19152;DHT22;9708;53.114;9.388;2023-04-12T07:06:12;7.70;99.90
19152;DHT22;9708;53.114;9.388;2023-04-12T07:08:38;7.70;99.90
19152;DHT22;9708;53.114;9.388;2023-04-12T07:11:07;7.70;99.90
19152;DHT22;9708;53.114;9.388;2023-04-12T07:13:33;7.70;99.90
19152;DHT22;9708;53.114;9.388;2023-04-12T07:16:00;7.60;99.90
19152;DHT22;9708;53.114;9.388;2023-04-12T07:18:28;7.80;99.90
19152;DHT22;9708;53.114;9.388;2023-04-12T07:20:55;7.90;99.90
19152;DHT22;9708;53.114;9.388;2023-04-12T07:23:22;7.90;99.90
19152;DHT22;9708;53.114;9.388;2023-04-12T07:25:49;8.10;99.90
19152;DHT22;9708;53.114;9.388;2023-04-12T07:28:18;7.90;99.90
19152;DHT22;9708;53.114;9.388;2023-04-12T07:30:45;7.90;99.90
19152;DHT22;9708;53.114;9.388;2023-04-12T07:33:12;8.00;99.90
19152;DHT22;9708;53.114;9.388;2023-04-12T07:35:39;8.00;99.90
19152;DHT22;9708;53.114;9.388;2023-04-12T07:38:06;8.00;99.90
19152;DHT22;9708;53.114;9.388;2023-04-12T07:40:32;8.00;99.90
19152;DHT22;9708;53.114;9.388;2023-04-12T07:42:59;8.20;99.90
19152;DHT22;9708;53.114;9.388;2023-04-12T07:45:27;8.40;99.90
19152;DHT22;9708;53.114;9.388;2023-04-12T07:47:54;8.40;99.90
19152;DHT22;9708;53.114;9.388;2023-04-12T07:50:21;8.50;99.90
19152;DHT22;9708;53.114;9.388;2023-04-12T07:52:47;8.60;99.90
19152;DHT22;9708;53.114;9.388;2023-04-12T07:55:14;8.60;99.90
19152;DHT22;9708;53.114;9.388;2023-04-12T07:57:41;8.70;99.90
19152;DHT22;9708;53.114;9.388;2023-04-12T08:00:09;8.70;99.90
19152;DHT22;9708;53.114;9.388;2023-04-12T08:02:37;8.80;99.90
19152;DHT22;9708;53.114;9.388;2023-04-12T08:05:05;9.10;99.90
19152;DHT22;9708;53.114;9.388;2023-04-12T08:07:32;9.00;99.90
19152;DHT22;9708;53.114;9.388;2023-04-12T08:09:59;9.30;99.90
19152;DHT22;9708;53.114;9.388;2023-04-12T08:12:25;9.40;99.90
19152;DHT22;9708;53.114;9.388;2023-04-12T08:14:52;9.50;99.90
19152;DHT22;9708;53.114;9.388;2023-04-12T08:17:19;9.40;99.90
19152;DHT22;9708;53.114;9.388;2023-04-12T08:19:47;9.50;99.90
19152;DHT22;9708;53.114;9.388;2023-04-12T08:22:14;9.50;99.90
19152;DHT22;9708;53.114;9.388;2023-04-12T08:24:40;9.60;99.90
19152;DHT22;9708;53.114;9.388;2023-04-12T08:27:07;9.70;99.90
19152;DHT22;9708;53.114;9.388;2023-04-12T08:29:36;9.70;99.90
19152;DHT22;9708;53.114;9.388;2023-04-12T08:32:02;9.80;99.90
19152;DHT22;9708;53.114;9.388;2023-04-12T08:34:30;9.90;99.90
19152;DHT22;9708;53.114;9.388;2023-04-12T08:36:58;10.10;99.90
19152;DHT22;9708;53.114;9.388;2023-04-12T08:39:25;10.20;99.90
19152;DHT22;9708;53.114;9.388;2023-04-12T08:41:53;10.60;99.90
19152;DHT22;9708;53.114;9.388;2023-04-12T08:44:31;10.60;99.90
19152;DHT22;9708;53.114;9.388;2023-04-12T08:47:00;10.50;99.90
19152;DHT22;9708;53.114;9.388;2023-04-12T08:49:27;10.50;99.90
19152;DHT22;9708;53.114;9.388;2023-04-12T08:51:54;10.70;99.90
19152;DHT22;9708;53.114;9.388;2023-04-12T08:54:25;10.50;99.90
19152;DHT22;9708;53.114;9.388;2023-04-12T08:56:55;10.40;99.90
19152;DHT22;9708;53.114;9.388;2023-04-12T08:59:25;10.40;99.90
19152;DHT22;9708;53.114;9.388;2023-04-12T09:01:53;10.40;99.90
19152;DHT22;9708;53.114;9.388;2023-04-12T09:04:20;10.30;99.90
19152;DHT22;9708;53.114;9.388;2023-04-12T09:06:47;10.30;99.90
19152;DHT22;9708;53.114;9.388;2023-04-12T09:09:13;10.20;99.90
19152;DHT22;9708;53.114;9.388;2023-04-12T09:11:42;10.00;99.90
19152;DHT22;9708;53.114;9.388;2023-04-12T09:14:24;9.90;99.90
19152;DHT22;9708;53.114;9.388;2023-04-12T09:16:51;9.90;99.90
19152;DHT22;9708;53.114;9.388;2023-04-12T09:19:30;9.70;99.90
19152;DHT22;9708;53.114;9.388;2023-04-12T09:21:57;9.60;99.90
19152;DHT22;9708;53.114;9.388;2023-04-12T09:24:24;9.60;99.90
19152;DHT22;9708;53.114;9.388;2023-04-12T09:27:01;9.50;99.90
19152;DHT22;9708;53.114;9.388;2023-04-12T09:29:28;9.30;99.90
19152;DHT22;9708;53.114;9.388;2023-04-12T09:31:58;9.20;99.90
19152;DHT22;9708;53.114;9.388;2023-04-12T09:34:25;9.10;99.90
19152;DHT22;9708;53.114;9.388;2023-04-12T09:36:52;9.20;99.90
19152;DHT22;9708;53.114;9.388;2023-04-12T09:39:19;9.20;99.90
19152;DHT22;9708;53.114;9.388;2023-04-12T09:41:45;9.20;99.90
19152;DHT22;9708;53.114;9.388;2023-04-12T09:47:06;9.10;99.90
19152;DHT22;9708;53.114;9.388;2023-04-12T09:49:36;9.10;99.90
19152;DHT22;9708;53.114;9.388;2023-04-12T09:52:04;9.00;99.90
19152;DHT22;9708;53.114;9.388;2023-04-12T09:54:36;9.10;99.90
19152;DHT22;9708;53.114;9.388;2023-04-12T09:57:05;9.10;99.90
19152;DHT22;9708;53.114;9.388;2023-04-12T09:59:35;9.00;99.90
19152;DHT22;9708;53.114;9.388;2023-04-12T10:02:06;9.10;99.90
19152;DHT22;9708;53.114;9.388;2023-04-12T10:04:34;9.20;99.90
19152;DHT22;9708;53.114;9.388;2023-04-12T10:07:01;9.10;99.90
19152;DHT22;9708;53.114;9.388;2023-04-12T10:09:29;9.00;99.90
19152;DHT22;9708;53.114;9.388;2023-04-12T10:11:56;9.00;99.90
19152;DHT22;9708;53.114;9.388;2023-04-12T10:14:26;9.00;99.90
19152;DHT22;9708;53.114;9.388;2023-04-12T10:16:55;9.00;99.90
19152;DHT22;9708;53.114;9.388;2023-04-12T10:19:24;9.10;99.90
19152;DHT22;9708;53.114;9.388;2023-04-12T10:21:52;9.00;99.90
19152;DHT22;9708;53.114;9.388;2023-04-12T10:24:20;8.90;99.90
19152;DHT22;9708;53.114;9.388;2023-04-12T10:26:47;9.00;99.90
19152;DHT22;9708;53.114;9.388;2023-04-12T10:29:22;9.20;99.90
19152;DHT22;9708;53.114;9.388;2023-04-12T10:31:49;9.00;99.90
19152;DHT22;9708;53.114;9.388;2023-04-12T10:34:16;9.10;99.90
19152;DHT22;9708;53.114;9.388;2023-04-12T10:36:52;9.10;99.90
19152;DHT22;9708;53.114;9.388;2023-04-12T10:39:37;9.10;99.90
19152;DHT22;9708;53.114;9.388;2023-04-12T10:42:22;9.20;99.90
19152;DHT22;9708;53.114;9.388;2023-04-12T10:44:50;9.10;99.90
19152;DHT22;9708;53.114;9.388;2023-04-12T10:50:21;9.20;99.90
19152;DHT22;9708;53.114;9.388;2023-04-12T10:53:23;9.20;99.90
19152;DHT22;9708;53.114;9.388;2023-04-12T10:55:53;9.20;99.90
19152;DHT22;9708;53.114;9.388;2023-04-12T11:01:26;9.30;99.90
19152;DHT22;9708;53.114;9.388;2023-04-12T11:04:20;9.20;99.90
19152;DHT22;9708;53.114;9.388;2023-04-12T11:06:55;9.10;99.90
19152;DHT22;9708;53.114;9.388;2023-04-12T11:09:25;9.10;99.90
19152;DHT22;9708;53.114;9.388;2023-04-12T11:12:11;9.10;99.90
19152;DHT22;9708;53.114;9.388;2023-04-12T11:14:44;9.10;99.90
19152;DHT22;9708;53.114;9.388;2023-04-12T11:17:22;9.00;99.90
19152;DHT22;9708;53.114;9.388;2023-04-12T11:19:55;9.20;99.90
19152;DHT22;9708;53.114;9.388;2023-04-12T11:22:23;9.30;99.90
19152;DHT22;9708;53.114;9.388;2023-04-12T11:24:53;9.30;99.90
19152;DHT22;9708;53.114;9.388;2023-04-12T11:27:22;9.20;99.90
19152;DHT22;9708;53.114;9.388;2023-04-12T11:29:50;9.20;99.90
19152;DHT22;9708;53.114;9.388;2023-04-12T11:32:20;9.20;99.90
19152;DHT22;9708;53.114;9.388;2023-04-12T11:34:47;9.20;99.90
19152;DHT22;9708;53.114;9.388;2023-04-12T11:37:14;9.10;99.90
19152;DHT22;9708;53.114;9.388;2023-04-12T11:39:44;9.20;99.90
19152;DHT22;9708;53.114;9.388;2023-04-12T11:42:14;9.30;99.90
19152;DHT22;9708;53.114;9.388;2023-04-12T11:44:41;9.30;99.90
19152;DHT22;9708;53.114;9.388;2023-04-12T11:47:13;9.20;99.90
19152;DHT22;9708;53.114;9.388;2023-04-12T11:49:45;9.30;99.90
19152;DHT22;9708;53.114;9.388;2023-04-12T11:52:12;9.20;99.90
19152;DHT22;9708;53.114;9.388;2023-04-12T11:54:43;9.30;99.90
19152;DHT22;9708;53.114;9.388;2023-04-12T11:57:13;9.20;99.90
19152;DHT22;9708;53.114;9.388;2023-04-12T11:59:42;9.10;99.90
19152;DHT22;9708;53.114;9.388;2023-04-12T12:02:10;9.20;99.90
19152;DHT22;9708;53.114;9.388;2023-04-12T12:04:37;9.10;99.90
19152;DHT22;9708;53.114;9.388;2023-04-12T12:07:05;9.10;99.90
19152;DHT22;9708;53.114;9.388;2023-04-12T12:09:32;9.20;99.90
19152;DHT22;9708;53.114;9.388;2023-04-12T12:12:00;9.10;99.90
19152;DHT22;9708;53.114;9.388;2023-04-12T12:14:32;9.20;99.90
19152;DHT22;9708;53.114;9.388;2023-04-12T12:16:59;9.30;99.90
19152;DHT22;9708;53.114;9.388;2023-04-12T12:19:27;9.50;99.90
19152;DHT22;9708;53.114;9.388;2023-04-12T12:22:09;9.70;99.90
19152;DHT22;9708;53.114;9.388;2023-04-12T12:24:36;9.70;99.90
19152;DHT22;9708;53.114;9.388;2023-04-12T12:27:04;9.50;99.90
19152;DHT22;9708;53.114;9.388;2023-04-12T12:29:36;9.40;99.90
19152;DHT22;9708;53.114;9.388;2023-04-12T12:32:09;9.40;99.90
19152;DHT22;9708;53.114;9.388;2023-04-12T12:34:36;9.60;99.90
19152;DHT22;9708;53.114;9.388;2023-04-12T12:37:07;9.50;99.90
19152;DHT22;9708;53.114;9.388;2023-04-12T12:39:35;9.40;99.90
19152;DHT22;9708;53.114;9.388;2023-04-12T12:42:02;9.60;99.90
19152;DHT22;9708;53.114;9.388;2023-04-12T12:44:30;9.40;99.90
19152;DHT22;9708;53.114;9.388;2023-04-12T12:47:00;9.50;99.90
19152;DHT22;9708;53.114;9.388;2023-04-12T12:54:30;9.40;99.90
19152;DHT22;9708;53.114;9.388;2023-04-12T12:56:57;9.50;99.90
19152;DHT22;9708;53.114;9.388;2023-04-12T12:59:24;9.50;99.90
19152;DHT22;9708;53.114;9.388;2023-04-12T13:01:51;9.50;99.90
19152;DHT22;9708;53.114;9.388;2023-04-12T13:04:19;9.60;99.90
19152;DHT22;9708;53.114;9.388;2023-04-12T13:06:45;9.70;99.90
19152;DHT22;9708;53.114;9.388;2023-04-12T13:09:12;9.70;99.90
19152;DHT22;9708;53.114;9.388;2023-04-12T13:11:39;9.50;99.90
19152;DHT22;9708;53.114;9.388;2023-04-12T13:14:06;9.50;99.90
19152;DHT22;9708;53.114;9.388;2023-04-12T13:16:32;9.50;99.90
19152;DHT22;9708;53.114;9.388;2023-04-12T13:19:00;9.40;99.90
19152;DHT22;9708;53.114;9.388;2023-04-12T13:21:28;9.50;99.90
19152;DHT22;9708;53.114;9.388;2023-04-12T13:23:56;9.30;99.90
19152;DHT22;9708;53.114;9.388;2023-04-12T13:26:22;9.20;99.90
19152;DHT22;9708;53.114;9.388;2023-04-12T13:28:50;9.30;99.90
19152;DHT22;9708;53.114;9.388;2023-04-12T13:31:16;9.40;99.90
19152;DHT22;9708;53.114;9.388;2023-04-12T13:33:43;9.60;99.90
19152;DHT22;9708;53.114;9.388;2023-04-12T13:36:10;9.60;99.90
19152;DHT22;9708;53.114;9.388;2023-04-12T13:38:38;9.80;99.90
19152;DHT22;9708;53.114;9.388;2023-04-12T13:41:05;9.70;99.90
19152;DHT22;9708;53.114;9.388;2023-04-12T13:43:32;9.50;99.90
19152;DHT22;9708;53.114;9.388;2023-04-12T13:45:59;9.60;99.90
19152;DHT22;9708;53.114;9.388;2023-04-12T13:48:25;9.60;99.90
19152;DHT22;9708;53.114;9.388;2023-04-12T13:50:53;9.70;99.90
19152;DHT22;9708;53.114;9.388;2023-04-12T13:53:21;9.80;99.90
19152;DHT22;9708;53.114;9.388;2023-04-12T13:55:49;9.70;99.90
19152;DHT22;9708;53.114;9.388;2023-04-12T13:58:16;9.70;99.90
19152;DHT22;9708;53.114;9.388;2023-04-12T14:00:43;9.80;99.90
19152;DHT22;9708;53.114;9.388;2023-04-12T14:03:10;9.90;99.90
19152;DHT22;9708;53.114;9.388;2023-04-12T14:05:37;10.00;99.90
19152;DHT22;9708;53.114;9.388;2023-04-12T14:08:04;9.90;99.90
19152;DHT22;9708;53.114;9.388;2023-04-12T14:10:30;10.00;99.90
19152;DHT22;9708;53.114;9.388;2023-04-12T14:12:58;10.00;99.90
19152;DHT22;9708;53.114;9.388;2023-04-12T14:15:25;10.10;99.90
19152;DHT22;9708;53.114;9.388;2023-04-12T14:17:52;10.10;99.90
19152;DHT22;9708;53.114;9.388;2023-04-12T14:20:19;10.20;99.90
19152;DHT22;9708;53.114;9.388;2023-04-12T14:22:47;10.30;99.90
19152;DHT22;9708;53.114;9.388;2023-04-12T14:25:14;10.40;99.90
19152;DHT22;9708;53.114;9.388;2023-04-12T14:27:41;10.40;99.90
19152;DHT22;9708;53.114;9.388;2023-04-12T14:30:09;10.40;99.90
19152;DHT22;9708;53.114;9.388;2023-04-12T14:32:36;10.40;99.90
19152;DHT22;9708;53.114;9.388;2023-04-12T14:35:03;10.40;99.90
19152;DHT22;9708;53.114;9.388;2023-04-12T14:37:30;10.30;99.90
19152;DHT22;9708;53.114;9.388;2023-04-12T14:39:57;10.40;99.90
19152;DHT22;9708;53.114;9.388;2023-04-12T14:42:24;10.40;99.90
19152;DHT22;9708;53.114;9.388;2023-04-12T14:44:51;10.50;99.90
19152;DHT22;9708;53.114;9.388;2023-04-12T14:47:19;10.40;99.90
19152;DHT22;9708;53.114;9.388;2023-04-12T14:49:45;10.30;99.90
19152;DHT22;9708;53.114;9.388;2023-04-12T14:52:12;10.40;99.90
19152;DHT22;9708;53.114;9.388;2023-04-12T14:54:39;10.40;99.90
19152;DHT22;9708;53.114;9.388;2023-04-12T14:57:06;10.50;99.90
19152;DHT22;9708;53.114;9.388;2023-04-12T14:59:32;10.30;99.90
19152;DHT22;9708;53.114;9.388;2023-04-12T15:01:59;10.60;99.90
19152;DHT22;9708;53.114;9.388;2023-04-12T15:04:27;10.50;99.90
19152;DHT22;9708;53.114;9.388;2023-04-12T15:06:54;10.70;99.90
19152;DHT22;9708;53.114;9.388;2023-04-12T15:09:21;10.70;99.90
19152;DHT22;9708;53.114;9.388;2023-04-12T15:11:49;10.50;99.90
19152;DHT22;9708;53.114;9.388;2023-04-12T15:14:19;10.40;99.90
19152;DHT22;9708;53.114;9.388;2023-04-12T15:16:46;10.10;99.90
19152;DHT22;9708;53.114;9.388;2023-04-12T15:19:14;10.30;99.90
19152;DHT22;9708;53.114;9.388;2023-04-12T15:21:43;10.30;99.90
19152;DHT22;9708;53.114;9.388;2023-04-12T15:24:11;10.40;99.90
19152;DHT22;9708;53.114;9.388;2023-04-12T15:26:37;10.30;99.90
19152;DHT22;9708;53.114;9.388;2023-04-12T15:29:04;10.30;99.90
19152;DHT22;9708;53.114;9.388;2023-04-12T15:31:32;10.50;99.90
19152;DHT22;9708;53.114;9.388;2023-04-12T15:33:59;10.40;99.90
19152;DHT22;9708;53.114;9.388;2023-04-12T15:36:25;10.30;99.90
19152;DHT22;9708;53.114;9.388;2023-04-12T15:39:00;10.30;99.90
19152;DHT22;9708;53.114;9.388;2023-04-12T15:41:32;10.40;99.90
19152;DHT22;9708;53.114;9.388;2023-04-12T15:44:01;10.30;99.90
19152;DHT22;9708;53.114;9.388;2023-04-12T15:46:28;10.40;99.90
19152;DHT22;9708;53.114;9.388;2023-04-12T15:48:55;10.30;99.90
19152;DHT22;9708;53.114;9.388;2023-04-12T15:51:23;10.40;99.90
19152;DHT22;9708;53.114;9.388;2023-04-12T15:53:49;10.40;99.90
19152;DHT22;9708;53.114;9.388;2023-04-12T15:56:17;10.50;99.90
19152;DHT22;9708;53.114;9.388;2023-04-12T15:58:48;10.50;99.90
19152;DHT22;9708;53.114;9.388;2023-04-12T16:01:15;10.40;99.90
19152;DHT22;9708;53.114;9.388;2023-04-12T16:03:42;10.50;99.90
19152;DHT22;9708;53.114;9.388;2023-04-12T16:06:11;10.30;99.90
19152;DHT22;9708;53.114;9.388;2023-04-12T16:08:45;10.30;99.90
19152;DHT22;9708;53.114;9.388;2023-04-12T16:11:13;10.30;99.90
19152;DHT22;9708;53.114;9.388;2023-04-12T16:13:41;10.10;99.90
19152;DHT22;9708;53.114;9.388;2023-04-12T16:16:10;10.20;99.90
19152;DHT22;9708;53.114;9.388;2023-04-12T16:18:38;10.10;99.90
19152;DHT22;9708;53.114;9.388;2023-04-12T16:21:05;10.10;99.90